createdAt,value
2022-08-07T00:02:39.803Z,92541.00
2022-08-07T00:05:06.144Z,92532.91
2022-08-07T00:07:40.486Z,92541.50
2022-08-07T00:10:27.249Z,92543.34
2022-08-07T00:13:02.271Z,92534.28
2022-08-07T00:15:46.702Z,92532.81
2022-08-07T00:18:24.316Z,92524.22
2022-08-07T00:20:56.825Z,92533.81
2022-08-07T00:23:28.280Z,92536.22
2022-08-07T00:26:02.801Z,92529.00
2022-08-07T00:28:45.917Z,92527.34
2022-08-07T00:31:37.493Z,92531.81
2022-08-07T00:34:08.547Z,92520.88
2022-08-07T00:36:43.217Z,92529.31
2022-08-07T00:39:17.115Z,92532.28
2022-08-07T00:42:01.481Z,92528.47
2022-08-07T00:44:35.110Z,92516.97
2022-08-07T00:47:16.185Z,92518.59
2022-08-07T00:52:53.025Z,92514.81
2022-08-07T00:55:25.502Z,92520.25
2022-08-07T00:58:12.846Z,92520.06
2022-08-07T01:00:54.077Z,92522.03
2022-08-07T01:03:55.609Z,92519.25
2022-08-07T01:06:14.280Z,92513.13
2022-08-07T01:08:53.790Z,92510.19
2022-08-07T01:12:09.828Z,92515.47
2022-08-07T01:14:16.604Z,92515.63
2022-08-07T01:16:47.970Z,92516.13
2022-08-07T01:19:19.818Z,92517.09
2022-08-07T01:21:55.345Z,92517.25
2022-08-07T01:24:26.157Z,92507.38
2022-08-07T01:26:56.723Z,92518.25
2022-08-07T01:29:33.701Z,92520.69
2022-08-07T01:32:12.513Z,92512.31
2022-08-07T01:34:47.204Z,92508.47
2022-08-07T01:37:18.994Z,92512.63
2022-08-07T01:39:50.419Z,92504.03
2022-08-07T01:42:40.088Z,92494.81
2022-08-07T01:45:17.798Z,92497.59
2022-08-07T01:48:18.534Z,92489.84
2022-08-07T01:50:40.319Z,92500.22
2022-08-07T01:53:21.632Z,92501.69
2022-08-07T01:56:12.611Z,92493.13
2022-08-07T01:58:50.201Z,92494.09
2022-08-07T02:02:00.190Z,92491.31
2022-08-07T02:04:23.002Z,92495.44
2022-08-07T02:06:59.855Z,92489.00
2022-08-07T02:09:53.226Z,92488.41
2022-08-07T02:12:29.240Z,92483.00
2022-08-07T02:15:06.729Z,92481.34
2022-08-07T02:17:39.414Z,92491.63
2022-08-07T02:20:17.477Z,92482.06
2022-08-07T02:22:55.393Z,92484.16
2022-08-07T02:26:10.315Z,92487.69
2022-08-07T02:28:24.388Z,92486.19
2022-08-07T02:30:55.692Z,92484.59
2022-08-07T02:33:41.906Z,92481.16
2022-08-07T02:36:28.869Z,92481.13
2022-08-07T02:39:15.934Z,92481.00
2022-08-07T02:41:54.425Z,92478.84
2022-08-07T02:44:34.432Z,92469.44
2022-08-07T02:47:06.806Z,92478.31
2022-08-07T02:49:57.466Z,92470.38
2022-08-07T02:52:32.553Z,92475.13
2022-08-07T02:55:27.894Z,92481.06
2022-08-07T02:58:05.633Z,92470.88
2022-08-07T03:00:37.555Z,92466.28
2022-08-07T03:03:13.414Z,92472.06
2022-08-07T03:05:43.982Z,92475.78
2022-08-07T03:08:15.713Z,92478.13
2022-08-07T03:10:47.457Z,92482.78
2022-08-07T03:13:20.179Z,92486.31
2022-08-07T03:15:56.697Z,92484.72
2022-08-07T03:18:34.715Z,92488.19
2022-08-07T03:21:11.276Z,92494.06
2022-08-07T03:24:19.060Z,92491.97
2022-08-07T03:26:35.324Z,92487.59
2022-08-07T03:29:15.677Z,92483.28
2022-08-07T03:31:49.833Z,92487.19
2022-08-07T03:34:22.294Z,92491.59
2022-08-07T03:36:54.691Z,92493.69
2022-08-07T03:39:59.673Z,92489.50
2022-08-07T03:42:17.913Z,92493.34
2022-08-07T03:44:53.529Z,92497.97
2022-08-07T03:47:23.945Z,92496.34
2022-08-07T03:49:53.732Z,92490.75
2022-08-07T03:54:33.014Z,92488.56
2022-08-07T03:57:03.303Z,92485.66
2022-08-07T03:59:33.888Z,92486.97
2022-08-07T04:02:04.242Z,92491.34
2022-08-07T04:04:33.897Z,92488.44
2022-08-07T04:07:16.610Z,92485.06
2022-08-07T04:09:50.695Z,92490.41
2022-08-07T04:12:27.091Z,92492.41
2022-08-07T04:15:00.744Z,92483.72
2022-08-07T04:18:30.898Z,92479.84
2022-08-07T04:20:20.596Z,92492.03
2022-08-07T04:22:53.331Z,92485.81
2022-08-07T04:25:35.945Z,92486.34
2022-08-07T04:28:13.245Z,92492.78
2022-08-07T04:30:56.638Z,92496.38
2022-08-07T04:33:28.152Z,92489.88
2022-08-07T04:35:58.419Z,92499.72
2022-08-07T04:38:29.236Z,92491.38
2022-08-07T04:41:00.092Z,92499.34
2022-08-07T04:44:10.325Z,92502.31
2022-08-07T04:46:34.445Z,92504.75
2022-08-07T04:49:17.900Z,92506.34
2022-08-07T04:52:05.237Z,92508.94
2022-08-07T04:54:41.122Z,92509.94
2022-08-07T04:58:12.099Z,92508.03
2022-08-07T05:00:31.577Z,92520.69
2022-08-07T05:03:17.265Z,92516.06
2022-08-07T05:06:19.321Z,92527.44
2022-08-07T05:09:01.935Z,92524.19
2022-08-07T05:11:58.192Z,92516.69
2022-08-07T05:14:55.861Z,92519.34
2022-08-07T05:17:51.899Z,92516.56
2022-08-07T05:20:16.629Z,92521.38
2022-08-07T05:22:49.383Z,92543.34
2022-08-07T05:25:35.596Z,92520.78
2022-08-07T05:28:20.061Z,92528.63
2022-08-07T05:30:53.779Z,92519.38
2022-08-07T05:33:25.937Z,92529.06
2022-08-07T05:35:57.706Z,92533.56
2022-08-07T05:38:59.955Z,92535.19
2022-08-07T05:41:18.526Z,92532.19
2022-08-07T05:44:12.698Z,92540.19
2022-08-07T05:46:45.971Z,92539.78
2022-08-07T05:49:22.654Z,92530.75
2022-08-07T05:51:52.290Z,92521.91
2022-08-07T05:54:30.744Z,92532.41
2022-08-07T05:57:03.578Z,92531.38
2022-08-07T05:59:57.576Z,92519.47
2022-08-07T06:02:32.916Z,92528.06
2022-08-07T06:05:07.450Z,92526.59
2022-08-07T06:08:13.535Z,92525.00
2022-08-07T06:10:31.173Z,92554.34
2022-08-07T06:13:02.448Z,92533.41
2022-08-07T06:15:38.976Z,92537.94
2022-08-07T06:18:14.801Z,92549.59
2022-08-07T06:20:50.496Z,92550.25
2022-08-07T06:24:36.799Z,92558.66
2022-08-07T06:26:27.473Z,92555.75
2022-08-07T06:29:01.453Z,92564.00
2022-08-07T06:31:46.611Z,92559.66
2022-08-07T06:34:21.476Z,92565.16
2022-08-07T06:36:52.108Z,92560.53
2022-08-07T06:40:17.985Z,92565.41
2022-08-07T06:42:17.761Z,92567.75
2022-08-07T06:44:50.968Z,92570.47
2022-08-07T06:47:22.024Z,92561.19
2022-08-07T06:49:58.631Z,92567.47
2022-08-07T06:55:27.735Z,92578.06
2022-08-07T06:56:49.375Z,92583.47
2022-08-07T07:00:14.718Z,92593.78
2022-08-07T07:02:48.510Z,92598.56
2022-08-07T07:05:13.043Z,92576.94
2022-08-07T07:07:59.947Z,92576.28
2022-08-07T07:10:37.148Z,92587.72
2022-08-07T07:13:14.628Z,92589.66
2022-08-07T07:15:51.900Z,92588.84
2022-08-07T07:18:47.967Z,92586.53
2022-08-07T07:21:27.002Z,92600.63
2022-08-07T07:24:11.242Z,92597.91
2022-08-07T07:26:51.963Z,92590.88
2022-08-07T07:29:56.834Z,92582.94
2022-08-07T07:32:17.808Z,92594.00
2022-08-07T07:34:51.056Z,92586.09
2022-08-07T07:37:45.133Z,92582.84
2022-08-07T07:40:18.638Z,92577.75
2022-08-07T07:42:54.325Z,92589.88
2022-08-07T07:46:38.266Z,92587.59
2022-08-07T07:48:35.026Z,92597.97
2022-08-07T07:51:07.738Z,92595.44
2022-08-07T07:53:51.899Z,92593.22
2022-08-07T07:56:30.071Z,92604.72
2022-08-07T07:59:05.932Z,92595.50
2022-08-07T08:02:02.576Z,92605.78
2022-08-07T08:04:31.272Z,92594.16
2022-08-07T08:07:07.605Z,92578.41
2022-08-07T08:09:52.151Z,92590.13
2022-08-07T08:12:52.077Z,92591.50
2022-08-07T08:15:23.227Z,92597.66
2022-08-07T08:18:36.943Z,92598.34
2022-08-07T08:20:43.669Z,92608.47
2022-08-07T08:23:37.273Z,92604.41
2022-08-07T08:26:22.954Z,92605.69
2022-08-07T08:28:57.074Z,92596.81
2022-08-07T08:31:58.666Z,92599.13
2022-08-07T08:34:29.195Z,92596.09
2022-08-07T08:37:00.121Z,92631.56
2022-08-07T08:39:38.948Z,92614.34
2022-08-07T08:42:29.078Z,92598.94
2022-08-07T08:45:13.098Z,92605.09
2022-08-07T08:47:55.549Z,92601.06
2022-08-07T08:50:39.366Z,92612.31
2022-08-07T08:53:20.635Z,92626.91
2022-08-07T08:55:58.978Z,92628.47
2022-08-07T08:58:41.910Z,92629.16
2022-08-07T09:01:20.420Z,92632.50
2022-08-07T09:04:01.602Z,92612.91
2022-08-07T09:06:47.790Z,92614.44
2022-08-07T09:09:57.436Z,92629.53
2022-08-07T09:12:53.243Z,92621.47
2022-08-07T09:16:23.680Z,92625.44
2022-08-07T09:19:51.609Z,92635.22
2022-08-07T09:24:32.713Z,92631.88
2022-08-07T09:25:28.032Z,92635.75
2022-08-07T09:30:00.559Z,92617.34
2022-08-07T09:31:05.873Z,92629.69
2022-08-07T09:34:01.040Z,92641.41
2022-08-07T09:36:37.059Z,92641.88
2022-08-07T09:39:54.729Z,92644.47
2022-08-07T09:42:36.454Z,92656.53
2022-08-07T09:47:27.512Z,92644.19
2022-08-07T09:48:43.970Z,92630.75
2022-08-07T09:54:02.390Z,92627.38
2022-08-07T09:57:46.869Z,92623.69
2022-08-07T10:00:18.791Z,92610.50
2022-08-07T10:04:05.432Z,92618.16
2022-08-07T10:06:40.572Z,92606.34
2022-08-07T10:10:00.179Z,92600.81
2022-08-07T10:13:03.672Z,92620.66
2022-08-07T10:15:51.782Z,92605.28
2022-08-07T10:18:53.345Z,92599.78
2022-08-07T10:22:02.778Z,92597.44
2022-08-07T10:25:05.596Z,92590.31
2022-08-07T10:28:02.478Z,92595.66
2022-08-07T10:30:45.615Z,92597.81
2022-08-07T10:34:14.242Z,92600.38
2022-08-07T10:36:50.192Z,92618.19
2022-08-07T10:39:41.688Z,92598.44
2022-08-07T10:42:37.790Z,92601.94
2022-08-07T10:45:44.798Z,92596.63
2022-08-07T10:48:34.940Z,92591.72
2022-08-07T10:51:16.265Z,92591.19
2022-08-07T10:54:15.101Z,92598.50
2022-08-07T10:57:01.625Z,92616.63
2022-08-07T10:59:55.039Z,92604.81
2022-08-07T11:02:37.917Z,92600.34
2022-08-07T11:05:35.931Z,92603.13
2022-08-07T11:08:31.519Z,92600.16
2022-08-07T11:11:10.888Z,92614.34
2022-08-07T11:14:56.582Z,92608.31
2022-08-07T11:16:51.019Z,92606.88
2022-08-07T11:19:31.937Z,92608.25
2022-08-07T11:22:27.395Z,92619.06
2022-08-07T11:25:13.275Z,92618.88
2022-08-07T11:28:01.326Z,92624.94
2022-08-07T11:30:44.231Z,92617.78
2022-08-07T11:33:59.580Z,92631.00
2022-08-07T11:36:39.511Z,92632.03
2022-08-07T11:39:24.698Z,92614.59
2022-08-07T11:42:08.256Z,92616.59
2022-08-07T11:44:59.129Z,92619.03
2022-08-07T11:47:56.692Z,92609.38
2022-08-07T11:50:44.538Z,92607.50
2022-08-07T11:54:01.201Z,92613.91
2022-08-07T11:56:48.623Z,92608.25
2022-08-07T12:00:11.551Z,92610.28
2022-08-07T12:03:41.390Z,92607.63
2022-08-07T12:06:44.901Z,92601.59
2022-08-07T12:09:33.579Z,92613.00
2022-08-07T12:12:11.660Z,92603.38
2022-08-07T12:14:56.126Z,92591.28
2022-08-07T12:17:58.962Z,92598.72
2022-08-07T12:20:36.399Z,92599.13
2022-08-07T12:24:05.517Z,92589.13
2022-08-07T12:26:35.381Z,92587.13
2022-08-07T12:29:37.215Z,92577.38
2022-08-07T12:32:19.284Z,92580.97
2022-08-07T12:34:55.943Z,92568.81
2022-08-07T12:38:09.661Z,92570.66
2022-08-07T12:40:46.538Z,92579.13
2022-08-07T12:44:04.583Z,92573.66
2022-08-07T12:46:26.192Z,92576.38
2022-08-07T12:49:25.762Z,92574.03
2022-08-07T12:54:02.621Z,92568.94
2022-08-07T12:56:55.288Z,92569.06
2022-08-07T12:59:33.313Z,92562.38
2022-08-07T13:03:01.273Z,92566.00
2022-08-07T13:06:02.613Z,92571.13
2022-08-07T13:08:56.851Z,92570.16
2022-08-07T13:12:02.672Z,92577.22
2022-08-07T13:15:04.764Z,92565.88
2022-08-07T13:17:44.143Z,92570.69
2022-08-07T13:20:27.769Z,92577.91
2022-08-07T13:23:09.977Z,92568.84
2022-08-07T13:26:10.521Z,92567.53
2022-08-07T13:28:55.286Z,92569.34
2022-08-07T13:31:46.109Z,92568.72
2022-08-07T13:34:39.061Z,92569.22
2022-08-07T13:37:25.023Z,92581.03
2022-08-07T13:40:35.176Z,92570.56
2022-08-07T13:43:11.842Z,92574.50
2022-08-07T13:46:10.833Z,92570.34
2022-08-07T13:48:39.661Z,92573.66
2022-08-07T13:51:28.190Z,92577.53
2022-08-07T13:54:03.792Z,92568.28
2022-08-07T13:56:41.267Z,92566.88
2022-08-07T13:59:31.589Z,92567.28
2022-08-07T14:02:10.383Z,92571.81
2022-08-07T14:04:54.336Z,92574.66
2022-08-07T14:07:28.459Z,92587.19
2022-08-07T14:10:20.404Z,92589.00
2022-08-07T14:13:00.554Z,92587.16
2022-08-07T14:15:36.551Z,92590.47
2022-08-07T14:18:23.895Z,92592.91
2022-08-07T14:21:11.668Z,92606.69
2022-08-07T14:24:00.885Z,92597.59
2022-08-07T14:26:50.724Z,92606.19
2022-08-07T14:30:04.985Z,92605.78
2022-08-07T14:32:19.267Z,92596.91
2022-08-07T14:34:52.565Z,92591.31
2022-08-07T14:37:23.717Z,92594.72
2022-08-07T14:40:25.774Z,92585.13
2022-08-07T14:43:54.894Z,92590.25
2022-08-07T14:48:48.521Z,92578.56
2022-08-07T14:51:24.177Z,92585.38
2022-08-07T14:54:33.107Z,92584.81
2022-08-07T14:57:08.566Z,92582.69
2022-08-07T15:00:03.337Z,92579.69
2022-08-07T15:02:34.524Z,92577.69
2022-08-07T15:08:00.294Z,92558.88
2022-08-07T15:10:31.433Z,92564.88
2022-08-07T15:16:11.467Z,92553.41
2022-08-07T15:18:48.055Z,92560.63
2022-08-07T15:21:59.324Z,92555.75
2022-08-07T15:27:15.775Z,92579.09
2022-08-07T15:30:04.835Z,92569.56
2022-08-07T15:33:01.289Z,92578.16
2022-08-07T15:35:40.690Z,92575.94
2022-08-07T15:38:51.383Z,92573.28
2022-08-07T15:42:43.379Z,92580.56
2022-08-07T15:44:23.727Z,92576.63
2022-08-07T15:47:03.295Z,92580.53
2022-08-07T15:50:04.234Z,92582.31
2022-08-07T15:53:56.854Z,92598.44
2022-08-07T15:56:36.954Z,92618.88
2022-08-07T15:59:17.431Z,92639.94
2022-08-07T16:02:01.847Z,92663.56
2022-08-07T16:04:36.191Z,92648.44
2022-08-07T16:08:30.355Z,92627.88
2022-08-07T16:10:15.508Z,92626.97
2022-08-07T16:13:04.897Z,92628.94
2022-08-07T16:16:48.725Z,92633.47
2022-08-07T16:19:20.858Z,92636.16
2022-08-07T16:22:55.827Z,92643.75
2022-08-07T16:25:56.784Z,92636.94
2022-08-07T16:30:05.974Z,92635.16
2022-08-07T16:32:00.703Z,92646.88
2022-08-07T16:34:48.492Z,92643.38
2022-08-07T16:38:44.461Z,92634.78
2022-08-07T16:41:41.201Z,92628.03
2022-08-07T16:45:14.750Z,92619.38
2022-08-07T16:48:28.609Z,92626.16
2022-08-07T16:51:57.730Z,92627.84
2022-08-07T16:54:32.953Z,92630.44
2022-08-07T16:58:02.644Z,92632.41
2022-08-07T17:00:43.571Z,92626.91
2022-08-07T17:03:58.275Z,92621.31
2022-08-07T17:06:34.291Z,92628.44
2022-08-07T17:10:06.043Z,92631.22
2022-08-07T17:12:34.330Z,92630.69
2022-08-07T17:15:21.362Z,92635.34
2022-08-07T17:18:12.701Z,92629.13
2022-08-07T17:20:46.586Z,92633.13
2022-08-07T17:23:38.884Z,92636.56
2022-08-07T17:26:24.249Z,92635.00
2022-08-07T17:29:18.399Z,92637.00
2022-08-07T17:32:31.211Z,92632.63
2022-08-07T17:35:50.916Z,92638.63
2022-08-07T17:38:33.520Z,92642.59
2022-08-07T17:42:00.574Z,92648.00
2022-08-07T17:44:33.270Z,92647.34
2022-08-07T17:47:16.836Z,92649.91
2022-08-07T17:49:55.860Z,92657.72
2022-08-07T17:52:39.901Z,92664.66
2022-08-07T17:55:14.114Z,92666.19
2022-08-07T17:57:58.752Z,92667.13
2022-08-07T18:00:49.071Z,92673.06
2022-08-07T18:04:04.658Z,92670.13
2022-08-07T18:06:38.168Z,92682.22
2022-08-07T18:09:09.544Z,92683.78
2022-08-07T18:12:17.844Z,92687.03
2022-08-07T18:14:52.894Z,92695.91
2022-08-07T18:18:36.519Z,92695.34
2022-08-07T18:21:07.145Z,92700.84
2022-08-07T18:23:43.689Z,92708.06
2022-08-07T18:26:26.963Z,92703.59
2022-08-07T18:30:04.692Z,92705.31
2022-08-07T18:32:21.983Z,92706.31
2022-08-07T18:35:12.872Z,92703.22
2022-08-07T18:38:55.182Z,92711.38
2022-08-07T18:41:17.040Z,92705.53
2022-08-07T18:44:03.883Z,92716.03
2022-08-07T18:46:58.223Z,92718.22
2022-08-07T18:50:31.465Z,92725.09
2022-08-07T18:54:27.595Z,92729.78
2022-08-07T18:57:30.665Z,92736.63
2022-08-07T19:00:32.425Z,92739.00
2022-08-07T19:03:12.211Z,92740.06
2022-08-07T19:06:04.103Z,92744.63
2022-08-07T19:08:48.312Z,92745.44
2022-08-07T19:11:35.022Z,92744.25
2022-08-07T19:14:17.262Z,92743.38
2022-08-07T19:17:07.645Z,92751.56
2022-08-07T19:19:55.115Z,92747.22
2022-08-07T19:22:34.226Z,92743.25
2022-08-07T19:26:23.356Z,92736.94
2022-08-07T19:28:57.147Z,92750.28
2022-08-07T19:31:37.428Z,92749.00
2022-08-07T19:34:02.856Z,92745.97
2022-08-07T19:36:42.561Z,92751.34
2022-08-07T19:39:56.126Z,92751.69
2022-08-07T19:42:24.544Z,92759.94
2022-08-07T19:44:56.953Z,92755.66
2022-08-07T19:47:36.681Z,92753.38
2022-08-07T19:50:41.135Z,92751.91
2022-08-07T19:53:01.011Z,92749.44
2022-08-07T19:55:56.353Z,92754.47
2022-08-07T19:58:22.497Z,92762.00
2022-08-07T20:01:01.686Z,92766.69
2022-08-07T20:03:35.209Z,92768.75
2022-08-07T20:06:15.312Z,92765.94
2022-08-07T20:09:03.070Z,92768.16
2022-08-07T20:12:22.849Z,92765.88
2022-08-07T20:14:32.114Z,92770.06
2022-08-07T20:17:06.082Z,92765.03
2022-08-07T20:19:48.034Z,92765.03
2022-08-07T20:22:34.108Z,92774.78
2022-08-07T20:25:19.297Z,92770.69
2022-08-07T20:27:58.562Z,92773.25
2022-08-07T20:30:35.094Z,92769.44
2022-08-07T20:33:24.494Z,92780.31
2022-08-07T20:36:03.059Z,92766.63
2022-08-07T20:38:35.049Z,92770.41
2022-08-07T20:41:08.370Z,92772.13
2022-08-07T20:43:47.674Z,92776.06
2022-08-07T20:46:26.656Z,92779.56
2022-08-07T20:49:57.994Z,92775.25
2022-08-07T20:51:51.463Z,92776.63
2022-08-07T20:54:29.998Z,92780.44
2022-08-07T20:57:05.322Z,92782.66
2022-08-07T21:00:06.431Z,92784.59
2022-08-07T21:02:53.891Z,92779.34
2022-08-07T21:05:50.550Z,92795.75
2022-08-07T21:08:38.246Z,92794.94
2022-08-07T21:11:14.806Z,92797.75
2022-08-07T21:14:29.365Z,92798.25
2022-08-07T21:16:56.850Z,92800.91
2022-08-07T21:19:51.246Z,92795.81
2022-08-07T21:22:29.574Z,92805.53
2022-08-07T21:25:13.338Z,92806.19
2022-08-07T21:28:09.492Z,92803.53
2022-08-07T21:30:57.875Z,92805.38
2022-08-07T21:33:41.894Z,92804.69
2022-08-07T21:36:31.784Z,92800.06
2022-08-07T21:39:47.714Z,92801.88
2022-08-07T21:42:48.139Z,92805.31
2022-08-07T21:46:08.016Z,92802.34
2022-08-07T21:48:28.526Z,92802.47
2022-08-07T21:53:54.755Z,92795.66
2022-08-07T21:56:48.256Z,92798.97
2022-08-07T22:00:05.225Z,92792.34
2022-08-07T22:02:35.729Z,92793.69
2022-08-07T22:05:08.847Z,92797.28
2022-08-07T22:07:58.484Z,92787.97
2022-08-07T22:10:35.567Z,92796.97
2022-08-07T22:13:09.011Z,92796.16
2022-08-07T22:16:44.090Z,92793.63
2022-08-07T22:18:46.436Z,92794.16
2022-08-07T22:21:21.179Z,92794.34
2022-08-07T22:23:59.793Z,92800.59
2022-08-07T22:26:44.395Z,92800.56
2022-08-07T22:29:38.132Z,92804.81
2022-08-07T22:32:24.492Z,92804.00
2022-08-07T22:34:57.438Z,92801.16
2022-08-07T22:38:04.150Z,92799.66
2022-08-07T22:40:44.219Z,92799.22
2022-08-07T22:43:18.714Z,92797.53
2022-08-07T22:46:46.939Z,92803.34
2022-08-07T22:49:33.688Z,92800.03
2022-08-07T22:52:39.919Z,92795.38
2022-08-07T22:55:40.550Z,92798.38
2022-08-07T22:58:56.055Z,92798.53
2022-08-07T23:02:17.030Z,92799.84
2022-08-07T23:06:08.954Z,92804.94
2022-08-07T23:08:32.684Z,92799.84
2022-08-07T23:11:24.617Z,92803.13
2022-08-07T23:14:24.651Z,92800.50
2022-08-07T23:17:29.666Z,92793.16
2022-08-07T23:20:53.162Z,92796.91
2022-08-07T23:24:17.127Z,92797.09
2022-08-07T23:27:08.663Z,92792.81
2022-08-07T23:30:37.309Z,92798.53
2022-08-07T23:34:34.865Z,92794.19
2022-08-07T23:36:37.345Z,92792.94
2022-08-07T23:39:14.440Z,92785.22
2022-08-07T23:42:04.211Z,92787.06
2022-08-07T23:45:49.869Z,92790.09
2022-08-07T23:48:35.520Z,92796.94
2022-08-07T23:52:55.982Z,92791.47
2022-08-07T23:54:11.719Z,92794.94
2022-08-07T23:57:03.011Z,92792.69
